Gaziantep, Türkiye

Saat: 10:25 AM EET Tarih: 21 Aralık 2014 (GMT +0200)
City Center | Change Station
CLOSE
Current Station
Kişisel Havadurumu İstasyonları
Location: Gaziantep, GAZIANTEP
Yükseklik: 2779 ft
Nearby Weather Stations

Elev 2779 ft 37.07 °N, 37.37 °E | Updated 5 minutes ago

Clear
Açık
56.3
Feels Like 56.3
N
0.0
Rüzgar Değişken Rüzgar from DKD
Gusts 3.1 mil

Bugün
High -- | Low -- F°
--% Chance of Precip.
Dün
High -- | Low -- F°
Precip. -- inç
6:40 AM 4:16 PM
Hilal, 1% visible
Basınç 30.12 inç
Görüş Uzaklığı -9999.0 mil
Bulutlar
Çiğ noktası 39
Nem oranı 53%
Yağış 0.00 inç
Kar Kalınlığı Not available.
Not available.
Pollen Not available.
Hava Kalitesi Not available.
Flu Activity Not available.
METAR LTAJ 210750Z 00000KT CAVOK 10/03 Q1020 NOSIG

More Conditions Fewer Conditions

Basınç 30.12 inç
Görüş Uzaklığı -9999.0 mil
Bulutlar
Çiğ noktası 39
Nem oranı 53%
Yağış 0.00 inç
Kar Kalınlığı Not available.
Not available.
Pollen Not available.
Hava Kalitesi Not available.
Flu Activity Not available.
METAR LTAJ 210750Z 00000KT CAVOK 10/03 Q1020 NOSIG

More Conditions Fewer Conditions

10-Day Weather Forecast

Almanac

Gökbilim

Dec. 21, 2014 Rise Set
Gerçek Zaman
Günlük Tan
Deniz Tanı
Geceyarısı Yıldız Zamanı
Ay
Görünür Işığın Uzunluğu
Günün Uzunluğu
Tomorrow will be .
, % of the Moon is Illuminated

Günün En Yüksekleri

Country Highs Country Lows

Community

WunderPhotos

Upload Photos

1,779,362 photos uploaded!

WunderBlogs® & News

Nearby

Hava Kalitesi

  Hava Kalitesi Hava Kalitesi Endeksi Kirletici
Not available.

Kar Kalınlığı

Station Depth Yükseklik

Earthquake Activity

Şehir Distance Mag. Time & Date
Minimum magnitude displayed is 2.5.

Coastal Water Temperatures

Yer Sıcaklık

Nearby Weather Stations